createdAt,value
2019-06-08T00:01:05.507Z,15.55
2019-06-08T00:03:37.187Z,15.60
2019-06-08T00:06:09.129Z,15.67
2019-06-08T00:08:41.276Z,15.62
2019-06-08T00:11:14.980Z,15.57
2019-06-08T00:13:47.071Z,15.52
2019-06-08T00:16:19.379Z,15.56
2019-06-08T00:18:51.155Z,15.56
2019-06-08T00:21:24.081Z,15.46
2019-06-08T00:23:56.162Z,15.46
2019-06-08T00:26:28.886Z,15.46
2019-06-08T00:29:00.671Z,15.44
2019-06-08T00:31:32.416Z,15.50
2019-06-08T00:34:04.208Z,15.48
2019-06-08T00:36:35.916Z,15.49
2019-06-08T00:39:09.891Z,15.48
2019-06-08T00:41:41.545Z,15.36
2019-06-08T00:44:13.296Z,15.32
2019-06-08T00:46:45.232Z,15.25
2019-06-08T00:49:18.284Z,15.19
2019-06-08T00:51:50.166Z,15.10
2019-06-08T00:54:23.438Z,15.09
2019-06-08T00:56:55.557Z,15.06
2019-06-08T00:59:27.244Z,14.99
2019-06-08T01:01:58.987Z,14.97
2019-06-08T01:04:30.771Z,14.97
2019-06-08T01:07:02.812Z,14.96
2019-06-08T01:09:34.683Z,14.94
2019-06-08T01:12:06.835Z,14.96
2019-06-08T01:14:38.716Z,15.00
2019-06-08T01:17:10.816Z,15.00
2019-06-08T01:19:42.817Z,14.98
2019-06-08T01:22:14.564Z,14.99
2019-06-08T01:24:46.322Z,14.98
2019-06-08T01:27:18.233Z,14.99
2019-06-08T01:29:49.912Z,14.99
2019-06-08T01:32:22.279Z,14.99
2019-06-08T01:34:54.401Z,14.98
2019-06-08T01:37:27.004Z,14.91
2019-06-08T01:39:58.825Z,14.91
2019-06-08T01:42:31.799Z,14.96
2019-06-08T01:45:05.560Z,14.97
2019-06-08T01:47:37.685Z,14.95
2019-06-08T01:50:09.924Z,14.96
2019-06-08T01:52:41.879Z,14.96
2019-06-08T01:55:13.929Z,14.89
2019-06-08T01:57:45.677Z,14.88
2019-06-08T02:00:29.823Z,14.88
2019-06-08T02:02:51.887Z,14.91
2019-06-08T02:05:24.132Z,14.90
2019-06-08T02:07:55.781Z,14.89
2019-06-08T02:10:28.704Z,14.89
2019-06-08T02:13:00.897Z,14.85
2019-06-08T02:15:33.853Z,14.78
2019-06-08T02:18:05.599Z,14.82
2019-06-08T02:20:37.385Z,14.88
2019-06-08T02:23:09.622Z,14.85
2019-06-08T02:25:43.052Z,14.84
2019-06-08T02:28:15.433Z,14.94
2019-06-08T02:30:50.075Z,15.01
2019-06-08T02:33:22.277Z,15.06
2019-06-08T02:35:54.513Z,15.12
2019-06-08T02:38:29.789Z,15.09
2019-06-08T02:41:02.501Z,15.12
2019-06-08T02:43:35.823Z,15.13
2019-06-08T02:46:08.835Z,15.18
2019-06-08T02:49:00.472Z,15.24
2019-06-08T02:51:15.236Z,15.22
2019-06-08T02:53:58.719Z,15.31
2019-06-08T02:56:34.191Z,15.31
2019-06-08T02:59:09.053Z,15.37
2019-06-08T03:01:43.862Z,15.39
2019-06-08T03:04:19.691Z,15.42
2019-06-08T03:06:54.464Z,15.49
2019-06-08T03:09:30.346Z,15.57
2019-06-08T03:12:04.720Z,15.62
2019-06-08T03:14:37.667Z,15.71
2019-06-08T03:17:11.027Z,15.83
2019-06-08T03:19:44.167Z,15.91
2019-06-08T03:22:17.587Z,15.90
2019-06-08T03:24:49.973Z,16.03
2019-06-08T03:27:24.504Z,16.10
2019-06-08T03:29:56.915Z,16.32
2019-06-08T03:32:29.862Z,16.51
2019-06-08T03:35:02.864Z,16.68
2019-06-08T03:37:37.816Z,17.06
2019-06-08T03:40:12.286Z,17.90
2019-06-08T03:42:45.851Z,18.15
2019-06-08T03:45:18.846Z,18.51
2019-06-08T03:47:51.756Z,18.14
2019-06-08T03:50:23.518Z,17.81
2019-06-08T03:52:55.273Z,17.77
2019-06-08T03:55:35.665Z,18.58
2019-06-08T03:58:06.342Z,19.61
2019-06-08T04:00:40.451Z,20.13
2019-06-08T04:03:13.069Z,20.05
2019-06-08T04:05:46.434Z,19.86
2019-06-08T04:08:20.590Z,19.72
2019-06-08T04:10:52.324Z,21.00
2019-06-08T04:13:24.081Z,20.77
2019-06-08T04:15:55.852Z,20.46
2019-06-08T04:18:27.617Z,21.47
2019-06-08T04:20:59.369Z,23.49
2019-06-08T04:23:31.140Z,24.34
2019-06-08T04:26:02.894Z,24.21
2019-06-08T04:28:34.645Z,25.31
2019-06-08T04:31:07.330Z,23.93
2019-06-08T04:33:40.280Z,24.88
2019-06-08T04:36:13.918Z,26.78
2019-06-08T04:38:47.971Z,27.78
2019-06-08T04:41:20.275Z,28.21
2019-06-08T04:43:53.208Z,27.86
2019-06-08T04:46:24.973Z,28.91
2019-06-08T04:48:57.966Z,26.95
2019-06-08T04:51:29.999Z,27.76
2019-06-08T04:54:01.760Z,29.17
2019-06-08T04:56:33.536Z,29.92
2019-06-08T04:59:05.671Z,28.97
2019-06-08T05:01:38.815Z,27.03
2019-06-08T05:04:12.186Z,25.96
2019-06-08T05:06:45.192Z,25.00
2019-06-08T05:09:18.452Z,23.98
2019-06-08T08:11:45.455Z,25.75
2019-06-08T08:14:21.424Z,25.93
2019-06-08T08:16:55.023Z,25.78
2019-06-08T08:19:26.745Z,25.46
2019-06-08T08:22:02.333Z,24.83
2019-06-08T08:24:32.036Z,25.22
2019-06-08T08:27:03.994Z,25.83
2019-06-08T08:29:38.238Z,26.19
2019-06-08T08:32:10.281Z,25.99
2019-06-08T08:34:42.645Z,26.36
2019-06-08T08:37:14.399Z,26.67
2019-06-08T08:39:50.116Z,26.27
2019-06-08T08:42:22.291Z,26.48
2019-06-08T08:44:58.643Z,26.44
2019-06-08T08:47:30.837Z,26.37
2019-06-08T08:50:07.298Z,26.36
2019-06-08T08:52:43.232Z,26.07
2019-06-08T08:55:34.744Z,26.02
2019-06-08T08:58:18.749Z,26.08
2019-06-08T09:00:55.337Z,26.38
2019-06-08T09:03:33.523Z,26.42
2019-06-08T09:06:08.723Z,27.78
2019-06-08T09:08:40.791Z,28.66
2019-06-08T09:11:17.678Z,28.26
2019-06-08T09:13:53.588Z,27.53
2019-06-08T09:16:25.502Z,27.78
2019-06-08T09:19:01.045Z,27.31
2019-06-08T09:21:30.614Z,26.83
2019-06-08T09:24:04.026Z,26.69
2019-06-08T09:26:38.067Z,26.51
2019-06-08T09:29:11.310Z,26.95
2019-06-08T09:31:49.051Z,27.16
2019-06-08T09:34:21.112Z,27.63
2019-06-08T09:36:59.715Z,27.49
2019-06-08T09:39:29.213Z,27.15
2019-06-08T09:42:03.015Z,26.84
2019-06-08T09:44:34.319Z,26.59
2019-06-08T09:47:12.128Z,26.67
2019-06-08T09:49:41.642Z,26.96
2019-06-08T09:52:13.331Z,26.07
2019-06-08T09:54:44.980Z,25.82
2019-06-08T09:57:18.910Z,25.72
2019-06-08T09:59:54.726Z,25.32
2019-06-08T10:02:28.169Z,25.65
2019-06-08T10:05:04.000Z,25.43
2019-06-08T10:07:38.831Z,24.89
2019-06-08T10:10:11.367Z,25.45
2019-06-08T10:12:48.979Z,25.82
2019-06-08T10:15:22.291Z,25.93
2019-06-08T10:17:56.881Z,25.46
2019-06-08T10:20:30.845Z,25.61
2019-06-08T10:23:05.585Z,26.11
2019-06-08T10:25:38.515Z,26.11
2019-06-08T10:28:15.895Z,25.77
2019-06-08T10:30:50.119Z,25.50
2019-06-08T10:33:24.424Z,25.49
2019-06-08T10:35:59.108Z,25.29
2019-06-08T10:38:29.914Z,25.32
2019-06-08T10:41:11.941Z,25.22
2019-06-08T10:43:38.687Z,25.25
2019-06-08T10:46:16.547Z,25.37
2019-06-08T10:48:44.313Z,25.62
2019-06-08T10:51:19.520Z,26.28
2019-06-08T10:53:53.831Z,26.17
2019-06-08T10:56:28.355Z,26.24
2019-06-08T10:59:01.723Z,25.55
2019-06-08T11:01:32.601Z,25.56
2019-06-08T11:04:05.415Z,25.13
2019-06-08T11:06:39.875Z,25.13
2019-06-08T11:09:13.177Z,24.91
2019-06-08T11:11:44.499Z,24.94
2019-06-08T11:14:18.364Z,24.96
2019-06-08T11:16:49.672Z,24.88
2019-06-08T11:19:26.772Z,25.12
2019-06-08T11:22:06.163Z,25.44
2019-06-08T11:24:38.741Z,25.20
2019-06-08T11:27:12.907Z,24.76
2019-06-08T11:29:44.489Z,24.56
2019-06-08T11:32:18.380Z,24.70
2019-06-08T11:34:50.588Z,24.76
2019-06-08T11:37:22.423Z,24.71
2019-06-08T11:39:54.347Z,24.09
2019-06-08T11:42:28.471Z,24.35
2019-06-08T11:45:00.340Z,24.26
2019-06-08T11:47:32.331Z,23.96
2019-06-08T11:50:12.554Z,23.85
2019-06-08T11:52:41.645Z,23.44
2019-06-08T11:55:14.807Z,23.06
2019-06-08T11:57:48.780Z,22.73
2019-06-08T12:06:44.388Z,21.92
2019-06-08T12:09:18.499Z,21.82
2019-06-08T12:11:50.027Z,21.81
2019-06-08T12:14:33.527Z,21.72
2019-06-08T12:17:05.114Z,21.66
2019-06-08T12:19:37.754Z,21.62
2019-06-08T12:22:13.042Z,21.57
2019-06-08T12:24:45.407Z,21.50
2019-06-08T12:27:29.171Z,21.19
2019-06-08T12:29:51.941Z,21.28
2019-06-08T12:32:23.482Z,21.40
2019-06-08T12:34:55.232Z,21.41
2019-06-08T12:37:27.535Z,21.52
2019-06-08T12:40:01.320Z,21.50
2019-06-08T12:42:34.679Z,21.53
2019-06-08T12:45:09.234Z,21.77
2019-06-08T12:47:41.080Z,22.04
2019-06-08T12:50:15.465Z,22.21
2019-06-08T12:52:48.925Z,22.20
2019-06-08T12:55:24.865Z,22.41
2019-06-08T12:57:55.074Z,22.51
2019-06-08T13:00:28.582Z,22.64
2019-06-08T13:03:02.021Z,22.83
2019-06-08T13:05:37.981Z,22.75
2019-06-08T13:08:10.558Z,22.93
2019-06-08T13:10:47.944Z,23.19
2019-06-08T13:13:24.021Z,23.52
2019-06-08T13:15:52.559Z,23.97
2019-06-08T13:18:24.303Z,24.25
2019-06-08T13:21:00.422Z,24.40
2019-06-08T13:23:32.268Z,24.53
2019-06-08T13:26:05.923Z,24.59
2019-06-08T13:28:38.860Z,24.85
2019-06-08T13:31:14.008Z,24.65
2019-06-08T13:33:44.125Z,24.84
2019-06-08T13:36:22.025Z,24.88
2019-06-08T13:38:50.099Z,25.11
2019-06-08T13:41:26.261Z,25.30
2019-06-08T13:43:58.277Z,25.52
2019-06-08T13:46:30.341Z,25.83
2019-06-08T13:49:08.149Z,26.32
2019-06-08T13:51:39.539Z,26.65
2019-06-08T13:54:12.716Z,26.60
2019-06-08T13:56:45.428Z,26.67
2019-06-08T13:59:22.734Z,26.75
2019-06-08T14:01:50.929Z,26.78
2019-06-08T14:04:23.805Z,26.65
2019-06-08T14:06:58.125Z,26.83
2019-06-08T14:09:31.494Z,26.91
2019-06-08T14:12:04.846Z,26.79
2019-06-08T14:14:39.706Z,26.50
2019-06-08T14:17:10.075Z,26.63
2019-06-08T14:19:41.815Z,26.35
2019-06-08T14:22:13.603Z,26.08
2019-06-08T14:24:47.781Z,26.11
2019-06-08T14:27:19.363Z,26.39
2019-06-08T14:29:51.646Z,26.24
2019-06-08T14:32:23.893Z,26.25
2019-06-08T14:34:58.209Z,25.91
2019-06-08T14:37:30.566Z,25.75
2019-06-08T14:40:02.335Z,25.56
2019-06-08T14:42:35.342Z,25.70
2019-06-08T14:45:10.971Z,25.32
2019-06-08T14:47:42.499Z,25.41
2019-06-08T14:50:15.110Z,25.30
2019-06-08T14:52:47.923Z,25.06
2019-06-08T14:55:22.254Z,25.12
2019-06-08T14:57:55.210Z,25.25
2019-06-08T15:00:27.697Z,25.26
2019-06-08T15:03:00.124Z,25.11
2019-06-08T15:05:34.552Z,25.14
2019-06-08T15:08:08.287Z,25.18
2019-06-08T15:10:42.502Z,24.93
2019-06-08T15:13:18.911Z,24.91
2019-06-08T15:15:52.341Z,25.14
2019-06-08T15:18:24.196Z,25.23
2019-06-08T15:20:58.097Z,25.27
2019-06-08T15:23:32.589Z,25.37
2019-06-08T15:26:03.665Z,25.36
2019-06-08T15:28:38.300Z,25.40
2019-06-08T15:31:10.035Z,25.35
2019-06-08T15:33:41.764Z,25.00
2019-06-08T15:36:13.776Z,25.02
2019-06-08T15:38:47.849Z,25.02
2019-06-08T15:41:21.356Z,25.19
2019-06-08T15:43:53.826Z,25.21
2019-06-08T15:46:28.227Z,24.97
2019-06-08T15:49:00.475Z,25.01
2019-06-08T15:51:37.264Z,24.63
2019-06-08T15:54:08.102Z,24.66
2019-06-08T15:56:48.674Z,24.73
2019-06-08T15:59:13.236Z,24.71
2019-06-08T16:01:46.275Z,24.78
2019-06-08T16:04:18.021Z,24.63
2019-06-08T16:06:49.846Z,24.53
2019-06-08T16:09:29.984Z,24.40
2019-06-08T16:12:03.124Z,24.46
2019-06-08T16:14:35.038Z,24.24
2019-06-08T16:17:08.145Z,24.18
2019-06-08T16:19:40.148Z,23.97
2019-06-08T16:22:15.462Z,23.93
2019-06-08T16:24:47.731Z,23.65
2019-06-08T16:27:19.490Z,23.83
2019-06-08T16:29:51.267Z,23.67
2019-06-08T16:32:23.008Z,23.70
2019-06-08T16:34:54.749Z,23.65
2019-06-08T16:37:27.483Z,23.65
2019-06-08T16:39:59.549Z,23.65
2019-06-08T16:42:33.087Z,23.46
2019-06-08T16:45:07.845Z,23.33
2019-06-08T16:47:46.602Z,23.25
2019-06-08T16:50:24.472Z,23.14
2019-06-08T16:52:53.719Z,23.09
2019-06-08T16:55:25.374Z,22.99
2019-06-08T16:57:57.216Z,22.86
2019-06-08T17:00:31.193Z,22.84
2019-06-08T17:03:02.874Z,22.79
2019-06-08T17:05:35.796Z,22.76
2019-06-08T17:08:07.521Z,22.72
2019-06-08T17:10:39.366Z,22.76
2019-06-08T17:13:12.734Z,22.69
2019-06-08T17:15:45.184Z,22.59
2019-06-08T17:18:18.222Z,22.58
2019-06-08T17:20:50.211Z,22.54
2019-06-08T17:23:22.016Z,22.50
2019-06-08T17:25:53.863Z,22.48
2019-06-08T17:28:25.599Z,22.36
2019-06-08T17:30:58.055Z,22.32
2019-06-08T17:33:31.027Z,22.27
2019-06-08T17:36:04.051Z,22.27
2019-06-08T17:38:35.734Z,22.26
2019-06-08T17:41:07.494Z,22.24
2019-06-08T17:43:40.298Z,22.12
2019-06-08T17:46:12.574Z,22.08
2019-06-08T17:48:44.245Z,22.03
2019-06-08T17:51:16.086Z,21.91
2019-06-08T17:53:47.834Z,21.90
2019-06-08T17:56:19.571Z,21.84
2019-06-08T17:58:51.386Z,21.81
2019-06-08T18:01:23.723Z,21.74
2019-06-08T18:03:57.337Z,21.67
2019-06-08T18:06:29.033Z,21.56
2019-06-08T18:09:02.048Z,21.48
2019-06-08T18:11:38.674Z,21.39
2019-06-08T18:14:08.812Z,21.28
2019-06-08T18:16:43.709Z,21.24
2019-06-08T18:19:25.009Z,21.13
2019-06-08T18:22:04.124Z,21.03
2019-06-08T18:24:31.719Z,20.91
2019-06-08T18:27:03.609Z,20.80
2019-06-08T18:29:38.870Z,20.71
2019-06-08T18:32:11.254Z,20.58
2019-06-08T18:34:44.925Z,20.50
2019-06-08T18:37:20.446Z,20.38
2019-06-08T18:39:52.396Z,20.27
2019-06-08T18:42:24.396Z,20.18
2019-06-08T18:44:58.244Z,20.06
2019-06-08T18:47:30.432Z,19.95
2019-06-08T18:50:02.217Z,19.83
2019-06-08T18:52:35.331Z,19.71
2019-06-08T18:55:09.326Z,19.48
2019-06-08T18:57:42.761Z,19.34
2019-06-08T19:00:15.889Z,19.14
2019-06-08T19:02:50.015Z,18.96
2019-06-08T19:05:21.552Z,18.82
2019-06-08T19:07:53.465Z,18.65
2019-06-08T19:10:34.283Z,18.50
2019-06-08T19:13:07.788Z,18.22
2019-06-08T19:15:43.920Z,17.95
2019-06-08T19:18:14.180Z,17.70
2019-06-08T19:20:48.979Z,17.53
2019-06-08T19:23:22.313Z,17.36
2019-06-08T19:25:54.117Z,17.16
2019-06-08T19:28:35.595Z,17.01
2019-06-08T19:30:59.404Z,16.91
2019-06-08T19:33:31.452Z,16.81
2019-06-08T19:36:03.204Z,16.74
2019-06-08T19:38:34.987Z,16.66
2019-06-08T19:41:08.155Z,16.57
2019-06-08T19:43:43.287Z,16.46
2019-06-08T19:46:14.099Z,16.32
2019-06-08T19:48:53.299Z,16.20
2019-06-08T19:51:19.709Z,16.08
2019-06-08T19:53:54.894Z,15.92
2019-06-08T19:56:25.113Z,15.75
2019-06-08T19:59:04.503Z,15.56
2019-06-08T20:01:37.810Z,15.37
2019-06-08T20:04:12.724Z,15.28
2019-06-08T20:06:48.062Z,15.21
2019-06-08T20:09:21.076Z,15.18
2019-06-08T20:11:59.364Z,15.12
2019-06-08T20:14:28.867Z,15.03
2019-06-08T20:17:00.614Z,14.91
2019-06-08T20:19:32.380Z,14.73
2019-06-08T20:22:07.517Z,14.60
2019-06-08T20:24:38.701Z,14.52
2019-06-08T20:27:11.715Z,14.45
2019-06-08T20:29:43.747Z,14.37
2019-06-08T20:32:18.052Z,14.29
2019-06-08T20:34:50.782Z,14.20
2019-06-08T20:37:22.762Z,14.07
2019-06-08T20:40:09.807Z,13.96
2019-06-08T20:42:31.934Z,13.85
2019-06-08T20:45:08.386Z,13.78
2019-06-08T20:47:40.280Z,13.66
2019-06-08T20:50:12.524Z,13.59
2019-06-08T20:52:47.222Z,13.52
2019-06-08T20:55:19.429Z,13.35
2019-06-08T20:57:53.737Z,13.27
2019-06-08T21:00:26.180Z,13.21
2019-06-08T21:03:02.849Z,13.20
2019-06-08T21:05:33.621Z,13.10
2019-06-08T21:08:08.185Z,13.08
2019-06-08T21:10:42.565Z,13.06
2019-06-08T21:13:17.939Z,13.06
2019-06-08T21:15:53.830Z,13.17
2019-06-08T21:18:24.702Z,13.28
2019-06-08T21:20:58.147Z,13.36
2019-06-08T21:23:32.211Z,13.39
2019-06-08T21:26:07.974Z,13.21
2019-06-08T21:28:39.175Z,13.07
2019-06-08T21:31:10.831Z,12.93
2019-06-08T21:33:42.588Z,12.88
2019-06-08T21:36:14.342Z,12.78
2019-06-08T21:38:49.845Z,12.75
2019-06-08T21:41:23.352Z,12.68
2019-06-08T21:44:02.269Z,12.63
2019-06-08T21:46:34.882Z,12.62
2019-06-08T21:49:08.081Z,12.66
2019-06-08T21:51:41.322Z,12.70
2019-06-08T21:54:13.226Z,12.84
2019-06-08T21:56:44.974Z,12.88
2019-06-08T21:59:20.960Z,12.88
2019-06-08T22:01:53.470Z,12.83
2019-06-08T22:04:27.683Z,12.68
2019-06-08T22:07:03.196Z,12.48
2019-06-08T22:09:47.941Z,12.29
2019-06-08T22:12:18.342Z,12.17
2019-06-08T22:14:51.381Z,12.07
2019-06-08T22:17:27.792Z,11.91
2019-06-08T22:20:01.066Z,11.88
2019-06-08T22:22:33.299Z,11.88
2019-06-08T22:25:08.163Z,11.98
2019-06-08T22:27:39.529Z,11.91
2019-06-08T22:30:22.870Z,11.84
2019-06-08T22:32:47.592Z,11.66
2019-06-08T22:35:19.739Z,11.36
2019-06-08T22:37:51.829Z,11.24
2019-06-08T22:40:25.112Z,11.13
2019-06-08T22:42:57.731Z,11.00
2019-06-08T22:45:30.417Z,10.98
2019-06-08T22:48:03.698Z,10.95
2019-06-08T22:50:35.489Z,10.93
2019-06-08T22:53:09.352Z,10.92
2019-06-08T22:55:41.196Z,10.94
2019-06-08T22:58:27.656Z,10.94
2019-06-08T23:01:02.523Z,10.97
2019-06-08T23:03:33.586Z,10.97
2019-06-08T23:06:08.777Z,10.96
2019-06-08T23:08:39.333Z,10.91
2019-06-08T23:11:11.059Z,10.82
2019-06-08T23:13:42.792Z,10.73
2019-06-08T23:16:14.537Z,10.67
2019-06-08T23:18:47.824Z,10.60
2019-06-08T23:21:19.971Z,10.46
2019-06-08T23:23:51.708Z,10.47
2019-06-08T23:26:23.448Z,10.46
2019-06-08T23:28:56.077Z,10.51
2019-06-08T23:31:29.056Z,10.60
2019-06-08T23:34:04.809Z,10.63
2019-06-08T23:36:50.769Z,10.66
2019-06-08T23:39:09.448Z,10.59
2019-06-08T23:41:41.102Z,10.48
2019-06-08T23:44:12.832Z,10.37
2019-06-08T23:46:44.568Z,10.27
2019-06-08T23:49:18.647Z,10.22
2019-06-08T23:51:49.635Z,10.18
2019-06-08T23:54:21.372Z,10.14
2019-06-08T23:56:53.113Z,10.10
2019-06-08T23:59:24.947Z,10.07
